createdAt,value
2023-04-10T00:00:06.904Z,18.7754
2023-04-10T00:01:08.426Z,18.8681
2023-04-10T00:02:10.238Z,18.9112
2023-04-10T00:03:11.982Z,18.8569
2023-04-10T00:04:13.564Z,18.7938
2023-04-10T00:05:15.284Z,18.7500
2023-04-10T00:06:16.807Z,18.8000
2023-04-10T00:07:18.470Z,18.8558
2023-04-10T00:08:20.076Z,18.8869
2023-04-10T00:09:21.708Z,18.8458
2023-04-10T00:10:23.929Z,18.7804
2023-04-10T00:11:25.051Z,18.7819
2023-04-10T00:12:26.655Z,18.7096
2023-04-10T00:13:28.411Z,18.8069
2023-04-10T00:14:30.106Z,18.8446
2023-04-10T00:15:31.643Z,18.8988
2023-04-10T00:16:33.334Z,18.8569
2023-04-10T00:17:35.998Z,18.8312
2023-04-10T00:18:36.647Z,18.7496
2023-04-10T00:19:38.233Z,18.7681
2023-04-10T00:20:39.906Z,18.7846
2023-04-10T00:21:41.642Z,18.8627
2023-04-10T00:22:43.322Z,18.8177
2023-04-10T00:23:45.087Z,18.5435
2023-04-10T00:24:46.605Z,18.3815
2023-04-10T00:25:48.299Z,18.6200
2023-04-10T00:26:49.892Z,18.7900
2023-04-10T00:27:51.595Z,18.9408
2023-04-10T00:28:53.299Z,18.9119
2023-04-10T00:29:54.879Z,18.8046
2023-04-10T00:30:56.593Z,18.7354
2023-04-10T00:31:58.339Z,18.6035
2023-04-10T00:32:59.900Z,18.7227
2023-04-10T00:34:01.553Z,18.8196
2023-04-10T00:35:03.188Z,18.9238
2023-04-10T00:36:04.900Z,18.9023
2023-04-10T00:37:06.462Z,18.8208
2023-04-10T00:38:08.132Z,18.8158
2023-04-10T00:39:09.865Z,18.8065
2023-04-10T00:40:11.432Z,18.8288
2023-04-10T00:41:13.082Z,18.8873
2023-04-10T00:42:14.680Z,18.9608
2023-04-10T00:43:16.346Z,18.8969
2023-04-10T00:44:18.050Z,18.8392
2023-04-10T00:45:19.642Z,18.7969
2023-04-10T00:46:21.310Z,18.7350
2023-04-10T00:47:22.997Z,18.7762
2023-04-10T00:48:24.603Z,18.7935
2023-04-10T00:49:26.302Z,18.8162
2023-04-10T00:50:27.942Z,18.8092
2023-04-10T00:51:29.535Z,18.7569
2023-04-10T00:52:31.193Z,18.6969
2023-04-10T00:53:32.912Z,18.6973
2023-04-10T00:54:34.553Z,18.7550
2023-04-10T00:55:36.131Z,18.7350
2023-04-10T00:56:37.742Z,18.7635
2023-04-10T00:57:39.506Z,18.7031
2023-04-10T00:58:41.182Z,18.6162
2023-04-10T00:59:42.952Z,18.5654
2023-04-10T01:00:44.447Z,18.5515
2023-04-10T01:01:46.209Z,18.6631
2023-04-10T01:02:47.968Z,18.8650
2023-04-10T01:03:49.445Z,18.9946
2023-04-10T01:04:51.243Z,18.9973
2023-04-10T01:05:52.648Z,18.9065
2023-04-10T01:06:54.233Z,18.8254
2023-04-10T01:07:55.912Z,18.7235
2023-04-10T01:08:57.580Z,18.7392
2023-04-10T01:09:59.269Z,18.7965
2023-04-10T01:11:00.926Z,18.8669
2023-04-10T01:12:02.566Z,18.8600
2023-04-10T01:13:04.215Z,18.8219
2023-04-10T01:14:05.849Z,18.7862
2023-04-10T01:15:07.540Z,18.7723
2023-04-10T01:16:09.166Z,18.7831
2023-04-10T01:17:10.918Z,18.8173
2023-04-10T01:18:12.462Z,18.8638
2023-04-10T01:19:14.111Z,18.8331
2023-04-10T01:20:15.780Z,18.7842
2023-04-10T01:21:17.384Z,18.7235
2023-04-10T01:22:19.052Z,18.7735
2023-04-10T01:23:20.710Z,18.8492
2023-04-10T01:24:22.308Z,18.8846
2023-04-10T01:25:24.056Z,18.8335
2023-04-10T01:26:25.690Z,18.7696
2023-04-10T01:27:27.253Z,18.7685
2023-04-10T01:28:28.930Z,18.7404
2023-04-10T01:29:30.579Z,18.7762
2023-04-10T01:30:32.302Z,18.7915
2023-04-10T01:31:33.931Z,18.7735
2023-04-10T01:32:35.650Z,18.6823
2023-04-10T01:33:37.216Z,18.6835
2023-04-10T01:34:38.918Z,18.7515
2023-04-10T01:35:41.085Z,18.8323
2023-04-10T01:36:42.166Z,18.8692
2023-04-10T01:37:46.101Z,18.8173
2023-04-10T01:38:50.289Z,18.7764
2023-04-10T01:39:51.933Z,18.6481
2023-04-10T01:40:53.647Z,18.6342
2023-04-10T01:41:55.223Z,18.7008
2023-04-10T01:42:56.853Z,18.7804
2023-04-10T01:43:58.529Z,18.8273
2023-04-10T01:45:00.220Z,18.8054
2023-04-10T01:46:02.139Z,18.7335
2023-04-10T01:47:03.501Z,18.5962
2023-04-10T01:48:05.132Z,18.7327
2023-04-10T01:49:06.850Z,18.7881
2023-04-10T01:50:08.451Z,18.8096
2023-04-10T01:51:10.163Z,18.7869
2023-04-10T01:52:12.594Z,18.7588
2023-04-10T01:53:13.491Z,18.6827
2023-04-10T01:54:15.024Z,18.6958
2023-04-10T01:55:16.754Z,18.7404
2023-04-10T01:56:18.460Z,18.8027
2023-04-10T01:57:20.072Z,18.8188
2023-04-10T01:58:21.760Z,18.7715
2023-04-10T01:59:23.486Z,18.6885
2023-04-10T02:00:25.047Z,18.4854
2023-04-10T02:01:30.084Z,18.5473
2023-04-10T02:02:28.346Z,18.7467
2023-04-10T02:03:30.029Z,18.7977
2023-04-10T02:04:31.705Z,18.6031
2023-04-10T02:05:33.286Z,18.3992
2023-04-10T02:06:34.934Z,18.4642
2023-04-10T02:07:36.648Z,18.6715
2023-04-10T02:08:38.320Z,18.8092
2023-04-10T02:09:39.959Z,18.8188
2023-04-10T02:10:41.610Z,18.7738
2023-04-10T02:11:43.174Z,18.7200
2023-04-10T02:12:44.853Z,18.5300
2023-04-10T02:13:46.475Z,18.5777
2023-04-10T02:14:48.236Z,18.7442
2023-04-10T02:15:49.834Z,18.8188
2023-04-10T02:16:51.590Z,18.8438
2023-04-10T02:17:53.130Z,18.8012
2023-04-10T02:18:54.780Z,18.6446
2023-04-10T02:19:56.398Z,18.4965
2023-04-10T02:20:58.051Z,18.6388
2023-04-10T02:22:00.486Z,18.7404
2023-04-10T02:23:01.412Z,18.7985
2023-04-10T02:24:03.063Z,18.7638
2023-04-10T02:25:05.448Z,18.6758
2023-04-10T02:26:06.352Z,18.6169
2023-04-10T02:27:08.042Z,18.6665
2023-04-10T02:28:09.643Z,18.6373
2023-04-10T02:29:11.451Z,18.7619
2023-04-10T02:30:13.090Z,18.7023
2023-04-10T02:31:14.765Z,18.3935
2023-04-10T02:32:16.302Z,18.2938
2023-04-10T02:33:17.909Z,18.4573
2023-04-10T02:34:19.609Z,18.7381
2023-04-10T02:35:21.251Z,18.8362
2023-04-10T02:36:22.846Z,18.8138
2023-04-10T02:37:24.569Z,18.7738
2023-04-10T02:38:26.215Z,18.7165
2023-04-10T02:39:27.830Z,18.7462
2023-04-10T02:40:29.509Z,18.7742
2023-04-10T02:41:31.177Z,18.8423
2023-04-10T02:42:32.957Z,18.8388
2023-04-10T02:43:34.451Z,18.7981
2023-04-10T02:44:36.147Z,18.7485
2023-04-10T02:45:37.783Z,18.6292
2023-04-10T02:46:39.517Z,18.6546
2023-04-10T02:47:42.041Z,18.7165
2023-04-10T02:48:42.769Z,18.7904
2023-04-10T02:49:44.479Z,18.7815
2023-04-10T02:50:47.014Z,18.7608
2023-04-10T02:51:47.737Z,18.6708
2023-04-10T02:52:52.624Z,18.6085
2023-04-10T02:53:51.162Z,18.9223
2023-04-10T02:54:52.724Z,19.3758
2023-04-10T02:55:54.404Z,19.8462
2023-04-10T02:56:56.015Z,20.0581
2023-04-10T02:57:57.681Z,20.1104
2023-04-10T02:58:59.279Z,20.0577
2023-04-10T03:00:00.980Z,20.0304
2023-04-10T03:01:02.587Z,20.1438
2023-04-10T03:02:04.289Z,20.2635
2023-04-10T03:03:06.159Z,20.3000
2023-04-10T03:04:07.841Z,20.3031
2023-04-10T03:05:10.015Z,20.3042
2023-04-10T03:06:10.911Z,20.2888
2023-04-10T03:07:12.574Z,20.3023
2023-04-10T03:08:14.569Z,20.3323
2023-04-10T03:09:15.883Z,20.3415
2023-04-10T03:10:17.538Z,20.3438
2023-04-10T03:11:19.137Z,20.3462
2023-04-10T03:12:20.794Z,20.3300
2023-04-10T03:13:23.146Z,20.3546
2023-04-10T03:14:24.157Z,20.4192
2023-04-10T03:15:25.768Z,20.4665
2023-04-10T03:16:27.621Z,20.4954
2023-04-10T03:17:29.044Z,20.5127
2023-04-10T03:18:30.786Z,20.4600
2023-04-10T03:19:33.015Z,20.4662
2023-04-10T03:20:34.066Z,20.5000
2023-04-10T03:21:35.672Z,20.5385
2023-04-10T03:22:37.344Z,20.5462
2023-04-10T03:23:39.063Z,20.5381
2023-04-10T03:24:40.616Z,20.5042
2023-04-10T03:25:42.340Z,20.5265
2023-04-10T03:26:43.951Z,20.5973
2023-04-10T03:27:45.624Z,20.6373
2023-04-10T03:28:47.310Z,20.6604
2023-04-10T03:29:48.895Z,20.6485
2023-04-10T03:30:50.574Z,20.6062
2023-04-10T03:31:52.319Z,20.5815
2023-04-10T03:32:53.892Z,20.6362
2023-04-10T03:33:56.443Z,20.7027
2023-04-10T03:34:57.182Z,20.7215
2023-04-10T03:35:58.925Z,20.7350
2023-04-10T03:37:00.474Z,20.6750
2023-04-10T03:38:02.132Z,20.6608
2023-04-10T03:39:03.858Z,20.6827
2023-04-10T03:40:05.612Z,20.7092
2023-04-10T03:41:07.169Z,20.7062
2023-04-10T03:42:08.911Z,20.6615
2023-04-10T03:43:10.579Z,20.6846
2023-04-10T03:44:12.697Z,20.7158
2023-04-10T03:45:13.819Z,20.7035
2023-04-10T03:46:15.364Z,20.7027
2023-04-10T03:47:17.112Z,20.7342
2023-04-10T03:48:18.721Z,20.7635
2023-04-10T03:49:20.942Z,20.7854
2023-04-10T03:50:22.051Z,20.6004
2023-04-10T03:51:23.698Z,20.3058
2023-04-10T03:52:25.334Z,20.4246
2023-04-10T03:53:27.058Z,20.6346
2023-04-10T03:54:28.675Z,20.7619
2023-04-10T03:55:30.428Z,20.8112
2023-04-10T03:56:31.977Z,20.7773
2023-04-10T03:57:33.587Z,20.6131
2023-04-10T03:58:35.242Z,20.6008
2023-04-10T03:59:38.863Z,20.7558
2023-04-10T04:00:38.463Z,20.8054
2023-04-10T04:01:40.276Z,20.7962
2023-04-10T04:02:41.911Z,20.7500
2023-04-10T04:03:43.697Z,20.6535
2023-04-10T04:04:45.214Z,20.7665
2023-04-10T04:05:46.845Z,20.8527
2023-04-10T04:06:48.361Z,20.8631
2023-04-10T04:07:50.158Z,20.8127
2023-04-10T04:08:51.684Z,20.7719
2023-04-10T04:09:55.352Z,20.8031
2023-04-10T04:10:55.005Z,20.8919
2023-04-10T04:11:56.619Z,20.9315
2023-04-10T04:12:58.314Z,20.9300
2023-04-10T04:13:59.977Z,20.8992
2023-04-10T04:15:01.848Z,20.8288
2023-04-10T04:16:03.536Z,20.8535
2023-04-10T04:17:05.212Z,20.8873
2023-04-10T04:18:06.681Z,20.9281
2023-04-10T04:19:09.001Z,20.9708
2023-04-10T04:20:10.013Z,20.9808
2023-04-10T04:21:11.584Z,20.9988
2023-04-10T04:22:13.213Z,20.9396
2023-04-10T04:23:14.898Z,20.8923
2023-04-10T04:24:16.505Z,20.9046
2023-04-10T04:25:18.195Z,20.9600
2023-04-10T04:26:19.857Z,20.9612
2023-04-10T04:27:21.482Z,20.9696
2023-04-10T04:28:23.133Z,20.9338
2023-04-10T04:29:24.791Z,20.8158
2023-04-10T04:30:26.589Z,20.7931
2023-04-10T04:31:28.111Z,20.8465
2023-04-10T04:32:29.834Z,20.9127
2023-04-10T04:33:31.331Z,20.9635
2023-04-10T04:34:33.086Z,20.9596
2023-04-10T04:35:35.147Z,20.9435
2023-04-10T04:36:36.305Z,20.9892
2023-04-10T04:37:38.012Z,21.0177
2023-04-10T04:38:39.670Z,21.0200
2023-04-10T04:39:41.337Z,21.0127
2023-04-10T04:40:43.098Z,21.0096
2023-04-10T04:41:45.047Z,20.8673
2023-04-10T04:42:46.248Z,20.7569
2023-04-10T04:43:47.892Z,20.7577
2023-04-10T04:44:49.607Z,20.7877
2023-04-10T04:45:52.077Z,20.7927
2023-04-10T04:46:52.824Z,20.7900
2023-04-10T04:47:54.499Z,20.7627
2023-04-10T04:48:56.150Z,20.7281
2023-04-10T04:49:57.826Z,20.6473
2023-04-10T04:50:59.640Z,20.5173
2023-04-10T04:52:02.101Z,20.5000
2023-04-10T04:53:02.807Z,20.5335
2023-04-10T04:54:04.446Z,20.5512
2023-04-10T04:55:06.102Z,20.5446
2023-04-10T04:56:08.693Z,20.5862
2023-04-10T04:57:09.389Z,20.5754
2023-04-10T04:58:11.106Z,20.5265
2023-04-10T04:59:12.799Z,20.5969
2023-04-10T05:00:14.329Z,20.7185
2023-04-10T05:01:16.104Z,20.7669
2023-04-10T05:02:18.109Z,20.5681
2023-04-10T05:03:19.613Z,20.4419
2023-04-10T05:04:21.129Z,20.5192
2023-04-10T05:05:22.626Z,20.6573
2023-04-10T05:06:24.616Z,20.7912
2023-04-10T05:07:26.201Z,20.8435
2023-04-10T05:08:27.672Z,20.8165
2023-04-10T05:09:29.344Z,20.7950
2023-04-10T05:10:30.981Z,20.7558
2023-04-10T05:11:32.644Z,20.7838
2023-04-10T05:12:34.346Z,20.8381
2023-04-10T05:13:35.924Z,20.9396
2023-04-10T05:14:37.695Z,20.9419
2023-04-10T05:15:39.399Z,20.8623
2023-04-10T05:16:41.175Z,20.7638
2023-04-10T05:17:42.667Z,20.7538
2023-04-10T05:18:44.231Z,20.7715
2023-04-10T05:19:45.861Z,20.8769
2023-04-10T05:20:47.452Z,20.9469
2023-04-10T05:21:49.228Z,20.9308
2023-04-10T05:22:50.842Z,20.8350
2023-04-10T05:23:52.482Z,20.7677
2023-04-10T05:24:54.062Z,20.7065
2023-04-10T05:25:55.772Z,20.7473
2023-04-10T05:26:57.497Z,20.8154
2023-04-10T05:27:58.961Z,20.9596
2023-04-10T05:29:00.612Z,21.0546
2023-04-10T05:30:02.237Z,21.0681
2023-04-10T05:31:03.992Z,20.9846
2023-04-10T05:32:05.649Z,20.8808
2023-04-10T05:33:07.277Z,20.8623
2023-04-10T05:34:08.900Z,20.9096
2023-04-10T05:35:10.543Z,21.0338
2023-04-10T05:36:12.235Z,21.1288
2023-04-10T05:37:13.911Z,21.1215
2023-04-10T05:38:16.218Z,21.0127
2023-04-10T05:39:17.175Z,20.9685
2023-04-10T05:40:18.990Z,21.0419
2023-04-10T05:41:20.552Z,21.1412
2023-04-10T05:42:23.832Z,21.2581
2023-04-10T05:43:23.763Z,21.3015
2023-04-10T05:44:25.421Z,21.2350
2023-04-10T05:45:27.102Z,21.1392
2023-04-10T05:46:28.830Z,21.1935
2023-04-10T05:47:30.669Z,21.2781
2023-04-10T05:48:32.065Z,21.3296
2023-04-10T05:49:33.695Z,21.3365
2023-04-10T05:50:35.375Z,21.3119
2023-04-10T05:51:37.000Z,21.2619
2023-04-10T05:52:38.750Z,21.2988
2023-04-10T05:53:40.320Z,21.3631
2023-04-10T05:54:42.678Z,21.4627
2023-04-10T05:55:43.773Z,21.4869
2023-04-10T05:56:45.320Z,21.3950
2023-04-10T05:57:47.005Z,21.3027
2023-04-10T05:58:48.559Z,21.3496
2023-04-10T05:59:50.273Z,21.4446
2023-04-10T06:00:51.916Z,21.5650
2023-04-10T06:01:53.647Z,21.6123
2023-04-10T06:02:55.296Z,21.5358
2023-04-10T06:03:57.068Z,21.4281
2023-04-10T06:04:59.082Z,21.4646
2023-04-10T06:06:00.195Z,21.5773
2023-04-10T06:07:01.833Z,21.6950
2023-04-10T06:08:03.815Z,21.7435
2023-04-10T06:09:05.242Z,21.6727
2023-04-10T06:10:06.868Z,21.5431
2023-04-10T06:11:08.653Z,21.5708
2023-04-10T06:12:10.225Z,21.6854
2023-04-10T06:13:12.352Z,21.7869
2023-04-10T06:14:13.614Z,21.8088
2023-04-10T06:15:15.180Z,21.7712
2023-04-10T06:16:16.879Z,21.6469
2023-04-10T06:17:18.671Z,21.6054
2023-04-10T06:18:20.209Z,21.7058
2023-04-10T06:19:21.869Z,21.7881
2023-04-10T06:20:23.803Z,21.8254
2023-04-10T06:21:25.394Z,21.8096
2023-04-10T06:22:26.728Z,21.7027
2023-04-10T06:23:28.426Z,21.6642
2023-04-10T06:24:30.114Z,21.7731
2023-04-10T06:25:31.737Z,21.8485
2023-04-10T06:26:33.304Z,21.8981
2023-04-10T06:27:34.959Z,21.8596
2023-04-10T06:28:36.711Z,21.7769
2023-04-10T06:29:38.245Z,21.7465
2023-04-10T06:30:39.912Z,21.7950
2023-04-10T06:31:41.636Z,21.8492
2023-04-10T06:32:43.185Z,21.9538
2023-04-10T06:33:44.948Z,21.8946
2023-04-10T06:34:46.543Z,21.8115
2023-04-10T06:35:48.207Z,21.7500
2023-04-10T06:36:49.769Z,21.8023
2023-04-10T06:37:51.511Z,21.9123
2023-04-10T06:38:53.494Z,22.0446
2023-04-10T06:39:54.873Z,22.0523
2023-04-10T06:40:56.542Z,21.8804
2023-04-10T06:41:58.078Z,21.8062
2023-04-10T06:42:59.717Z,21.8631
2023-04-10T06:44:03.420Z,21.9827
2023-04-10T06:45:03.045Z,22.0800
2023-04-10T06:46:04.662Z,22.0642
2023-04-10T06:47:06.597Z,21.9342
2023-04-10T06:48:08.041Z,21.8488
2023-04-10T06:49:10.516Z,21.9769
2023-04-10T06:50:11.427Z,22.1042
2023-04-10T06:51:13.016Z,22.2315
2023-04-10T06:52:14.599Z,22.1885
2023-04-10T06:53:16.349Z,22.0231
2023-04-10T06:54:17.964Z,21.8912
2023-04-10T06:55:19.544Z,21.9569
2023-04-10T06:56:21.233Z,22.0646
2023-04-10T06:57:22.839Z,22.1538
2023-04-10T06:58:24.606Z,22.1612
2023-04-10T06:59:26.218Z,22.0858
2023-04-10T07:00:27.945Z,22.0019
2023-04-10T07:01:29.533Z,22.0608
2023-04-10T07:02:31.171Z,22.2396
2023-04-10T07:03:32.879Z,22.3077
2023-04-10T07:04:34.454Z,22.3119
2023-04-10T07:05:36.045Z,22.2435
2023-04-10T07:06:37.989Z,22.2069
2023-04-10T07:07:39.364Z,22.2985
2023-04-10T07:08:40.960Z,22.3562
2023-04-10T07:09:43.225Z,22.3681
2023-04-10T07:10:44.330Z,22.2808
2023-04-10T07:11:45.890Z,22.0823
2023-04-10T07:12:47.596Z,22.0446
2023-04-10T07:13:49.234Z,22.1465
2023-04-10T07:14:50.947Z,22.2608
2023-04-10T07:15:52.608Z,22.2996
2023-04-10T07:16:54.227Z,22.2550
2023-04-10T07:17:56.735Z,22.0604
2023-04-10T07:18:57.706Z,22.0235
2023-04-10T07:19:59.349Z,22.1408
2023-04-10T07:21:00.792Z,22.2746
2023-04-10T07:22:02.453Z,22.2969
2023-04-10T07:23:04.203Z,22.2258
2023-04-10T07:24:05.910Z,22.0335
2023-04-10T07:25:07.465Z,22.0435
2023-04-10T07:26:09.082Z,22.1865
2023-04-10T07:27:10.825Z,22.2885
2023-04-10T07:28:12.394Z,22.2938
2023-04-10T07:29:14.019Z,22.1019
2023-04-10T07:30:15.799Z,21.9904
2023-04-10T07:31:17.333Z,22.0746
2023-04-10T07:32:19.018Z,22.2469
2023-04-10T07:33:20.844Z,22.2996
2023-04-10T07:34:22.306Z,22.2954
2023-04-10T07:35:24.259Z,22.1377
2023-04-10T07:36:25.668Z,22.0369
2023-04-10T07:37:27.163Z,22.0485
2023-04-10T07:38:28.969Z,22.2573
2023-04-10T07:39:30.613Z,22.3162
2023-04-10T07:40:32.235Z,22.2969
2023-04-10T07:41:33.818Z,22.1296
2023-04-10T07:42:35.459Z,22.0608
2023-04-10T07:43:37.205Z,22.1912
2023-04-10T07:44:38.807Z,22.3181
2023-04-10T07:45:40.483Z,22.3919
2023-04-10T07:46:42.073Z,22.2962
2023-04-10T07:47:43.816Z,22.1462
2023-04-10T07:48:45.420Z,22.1162
2023-04-10T07:49:47.113Z,22.2573
2023-04-10T07:50:48.751Z,22.3785
2023-04-10T07:51:50.354Z,22.4315
2023-04-10T07:52:52.005Z,22.3158
2023-04-10T07:53:53.760Z,22.2212
2023-04-10T07:54:56.212Z,22.1792
2023-04-10T07:55:57.184Z,22.2696
2023-04-10T07:56:58.744Z,22.3758
2023-04-10T07:58:00.301Z,22.4069
2023-04-10T07:59:01.975Z,22.3054
2023-04-10T08:00:03.597Z,22.2658
2023-04-10T08:01:05.270Z,22.1765
2023-04-10T08:02:07.068Z,22.2442
2023-04-10T08:03:08.735Z,22.3554
2023-04-10T08:04:10.354Z,22.3938
2023-04-10T08:05:11.985Z,22.3138
2023-04-10T08:06:13.602Z,22.2823
2023-04-10T08:07:15.203Z,22.2827
2023-04-10T08:08:16.807Z,22.3327
2023-04-10T08:09:18.558Z,22.4446
2023-04-10T08:10:20.242Z,22.4362
2023-04-10T08:11:22.268Z,22.3246
2023-04-10T08:12:23.424Z,22.3331
2023-04-10T08:13:25.124Z,22.3108
2023-04-10T08:14:26.734Z,22.3673
2023-04-10T08:15:28.520Z,22.4681
2023-04-10T08:16:30.213Z,22.4304
2023-04-10T08:17:31.782Z,22.3331
2023-04-10T08:18:33.459Z,22.3304
2023-04-10T08:19:36.048Z,22.2869
2023-04-10T08:20:37.330Z,22.3296
2023-04-10T08:21:38.391Z,22.4204
2023-04-10T08:22:40.027Z,22.3735
2023-04-10T08:23:41.753Z,22.3031
2023-04-10T08:24:43.320Z,22.3050
2023-04-10T08:25:44.911Z,22.3258
2023-04-10T08:26:46.692Z,22.4323
2023-04-10T08:27:48.302Z,22.5223
2023-04-10T08:28:49.899Z,22.4304
2023-04-10T08:29:51.507Z,22.3458
2023-04-10T08:30:53.226Z,22.3388
2023-04-10T08:31:55.386Z,22.3446
2023-04-10T08:32:56.657Z,22.4846
2023-04-10T08:33:58.955Z,22.5327
2023-04-10T08:34:59.848Z,22.3765
2023-04-10T08:36:01.439Z,22.3462
2023-04-10T08:37:03.146Z,22.3581
2023-04-10T08:38:13.666Z,22.5169
2023-04-10T08:39:06.502Z,22.6871
2023-04-10T08:40:08.079Z,22.6815
2023-04-10T08:41:09.743Z,22.5077
2023-04-10T08:42:11.508Z,22.3719
2023-04-10T08:43:13.077Z,22.3269
2023-04-10T08:44:14.764Z,22.4669
2023-04-10T08:45:16.272Z,22.6577
2023-04-10T08:46:18.022Z,22.6638
2023-04-10T08:47:19.717Z,22.5077
2023-04-10T08:48:21.378Z,22.4819
2023-04-10T08:49:22.969Z,22.4065
2023-04-10T08:50:24.584Z,22.6023
2023-04-10T08:51:26.753Z,22.7496
2023-04-10T08:52:27.945Z,22.7427
2023-04-10T08:53:29.577Z,22.5427
2023-04-10T08:54:31.268Z,22.5246
2023-04-10T08:55:32.898Z,22.5896
2023-04-10T08:56:34.497Z,22.8027
2023-04-10T08:57:36.276Z,22.9665
2023-04-10T08:58:37.914Z,22.9092
2023-04-10T08:59:39.476Z,22.7542
2023-04-10T09:00:41.518Z,22.7577
2023-04-10T09:01:42.857Z,22.7646
2023-04-10T09:02:44.680Z,22.9608
2023-04-10T09:03:46.134Z,23.1112
2023-04-10T09:04:48.392Z,23.0300
2023-04-10T09:05:49.421Z,22.8058
2023-04-10T09:06:51.097Z,22.8215
2023-04-10T09:07:52.727Z,22.8877
2023-04-10T09:08:54.448Z,23.1265
2023-04-10T09:09:56.136Z,23.2573
2023-04-10T09:10:57.678Z,23.1200
2023-04-10T09:11:59.388Z,22.9165
2023-04-10T09:13:01.007Z,23.0004
2023-04-10T09:14:02.617Z,23.0742
2023-04-10T09:15:04.249Z,23.2735
2023-04-10T09:16:05.995Z,23.3450
2023-04-10T09:17:08.023Z,23.1919
2023-04-10T09:18:09.251Z,23.0315
2023-04-10T09:19:10.877Z,23.0704
2023-04-10T09:20:12.631Z,23.1815
2023-04-10T09:21:14.143Z,23.3827
2023-04-10T09:22:15.848Z,23.4577
2023-04-10T09:23:17.485Z,23.2700
2023-04-10T09:24:19.125Z,23.1042
2023-04-10T09:25:20.869Z,23.1458
2023-04-10T09:26:22.563Z,23.2823
2023-04-10T09:27:24.107Z,23.4950
2023-04-10T09:28:25.956Z,23.5292
2023-04-10T09:29:27.447Z,23.2873
2023-04-10T09:30:29.159Z,23.1377
2023-04-10T09:31:30.811Z,23.2285
2023-04-10T09:32:32.388Z,23.3885
2023-04-10T09:33:34.173Z,23.5846
2023-04-10T09:34:35.768Z,23.6162
2023-04-10T09:35:37.296Z,23.3596
2023-04-10T09:36:39.020Z,23.1704
2023-04-10T09:37:40.854Z,23.2415
2023-04-10T09:38:42.327Z,23.3927
2023-04-10T09:39:43.951Z,23.5781
2023-04-10T09:40:45.607Z,23.6285
2023-04-10T09:41:47.316Z,23.4004
2023-04-10T09:42:48.965Z,23.2685
2023-04-10T09:43:50.658Z,23.3435
2023-04-10T09:44:52.205Z,23.4992
2023-04-10T09:45:53.839Z,23.7112
2023-04-10T09:46:55.701Z,23.7235
2023-04-10T09:47:57.230Z,23.4800
2023-04-10T09:48:58.913Z,23.3019
2023-04-10T09:50:00.479Z,23.3677
2023-04-10T09:51:02.238Z,23.4712
2023-04-10T09:52:03.822Z,23.6988
2023-04-10T09:53:05.464Z,23.7181
2023-04-10T09:54:07.313Z,23.4215
2023-04-10T09:55:08.825Z,23.2827
2023-04-10T09:56:10.503Z,23.4481
2023-04-10T09:57:12.074Z,23.6908
2023-04-10T09:58:13.747Z,23.8854
2023-04-10T09:59:15.520Z,23.8935
2023-04-10T10:00:17.091Z,23.6623
2023-04-10T10:01:19.050Z,23.4973
2023-04-10T10:02:20.487Z,23.5692
2023-04-10T10:03:22.135Z,23.7831
2023-04-10T10:04:23.759Z,23.9962
2023-04-10T10:05:25.335Z,23.9242
2023-04-10T10:06:26.988Z,23.7000
2023-04-10T10:07:28.634Z,23.5935
2023-04-10T10:08:32.326Z,23.7323
2023-04-10T10:09:37.280Z,23.9132
2023-04-10T10:10:38.935Z,24.0962
2023-04-10T10:11:39.861Z,23.9673
2023-04-10T10:12:41.631Z,23.6808
2023-04-10T10:13:43.361Z,23.6085
2023-04-10T10:14:45.069Z,23.7592
2023-04-10T10:15:46.580Z,23.9996
2023-04-10T10:16:48.779Z,24.1688
2023-04-10T10:17:49.929Z,24.0277
2023-04-10T10:18:51.568Z,23.7758
2023-04-10T10:19:53.840Z,23.7104
2023-04-10T10:20:54.827Z,23.7927
2023-04-10T10:21:56.688Z,24.0342
2023-04-10T10:22:58.193Z,24.2069
2023-04-10T10:23:59.868Z,24.0781
2023-04-10T10:25:01.519Z,23.8423
2023-04-10T10:26:03.930Z,23.7996
2023-04-10T10:27:04.923Z,23.9662
2023-04-10T10:28:06.461Z,24.2285
2023-04-10T10:29:08.230Z,24.3469
2023-04-10T10:30:25.379Z,24.2196
2023-04-10T10:31:11.464Z,23.9354
2023-04-10T10:32:13.017Z,23.8792
2023-04-10T10:33:14.726Z,24.0519
2023-04-10T10:34:16.320Z,24.2865
2023-04-10T10:35:18.193Z,24.3854
2023-04-10T10:36:19.788Z,24.2469
2023-04-10T10:37:21.476Z,23.9892
2023-04-10T10:38:23.064Z,23.9492
2023-04-10T10:39:25.413Z,24.0927
2023-04-10T10:40:26.375Z,24.2950
2023-04-10T10:41:27.905Z,24.4565
2023-04-10T10:42:29.681Z,24.3485
2023-04-10T10:43:31.316Z,24.1108
2023-04-10T10:44:32.940Z,24.0342
2023-04-10T10:45:34.686Z,24.2054
2023-04-10T10:46:36.160Z,24.3650
2023-04-10T10:47:37.968Z,24.5188
2023-04-10T10:48:39.501Z,24.3912
2023-04-10T10:49:41.233Z,24.1462
2023-04-10T10:50:43.550Z,24.0781
2023-04-10T10:51:44.613Z,24.1915
2023-04-10T10:52:46.156Z,24.3896
2023-04-10T10:53:47.832Z,24.5573
2023-04-10T10:54:59.137Z,24.4485
2023-04-10T10:55:51.162Z,24.1983
2023-04-10T10:56:52.753Z,24.1265
2023-04-10T10:57:54.430Z,24.2692
2023-04-10T10:58:56.485Z,24.4838
2023-04-10T10:59:57.778Z,24.6912
2023-04-10T11:00:59.456Z,24.5715
2023-04-10T11:02:01.122Z,24.3412
2023-04-10T11:03:03.082Z,24.2185
2023-04-10T11:04:04.503Z,24.3223
2023-04-10T11:05:06.061Z,24.5792
2023-04-10T11:06:07.704Z,24.7954
2023-04-10T11:07:09.694Z,24.7800
2023-04-10T11:08:10.997Z,24.5400
2023-04-10T11:09:12.607Z,24.3758
2023-04-10T11:10:14.466Z,24.4685
2023-04-10T11:11:16.103Z,24.6185
2023-04-10T11:12:17.529Z,24.8008
2023-04-10T11:13:19.196Z,24.7962
2023-04-10T11:14:20.864Z,24.6192
2023-04-10T11:15:22.581Z,24.4569
2023-04-10T11:16:24.253Z,24.5269
2023-04-10T11:17:25.856Z,24.7681
2023-04-10T11:18:27.447Z,24.9942
2023-04-10T11:19:29.158Z,24.9812
2023-04-10T11:20:30.743Z,24.8142
2023-04-10T11:21:32.524Z,24.6446
2023-04-10T11:22:34.137Z,24.6223
2023-04-10T11:23:35.786Z,24.7835
2023-04-10T11:24:37.397Z,24.9331
2023-04-10T11:25:39.079Z,24.9904
2023-04-10T11:26:40.739Z,24.8204
2023-04-10T11:27:42.478Z,24.6685
2023-04-10T11:28:44.083Z,24.7019
2023-04-10T11:29:45.669Z,24.8465
2023-04-10T11:30:47.389Z,25.0112
2023-04-10T11:31:49.052Z,25.0662
2023-04-10T11:32:50.794Z,24.9046
2023-04-10T11:33:52.375Z,24.7392
2023-04-10T11:34:53.952Z,24.7969
2023-04-10T11:35:55.660Z,25.0196
2023-04-10T11:36:57.265Z,25.1846
2023-04-10T11:37:58.867Z,25.2319
2023-04-10T11:39:00.544Z,25.0608
2023-04-10T11:40:02.198Z,24.9273
2023-04-10T11:41:03.896Z,24.9785
2023-04-10T11:42:05.541Z,25.1500
2023-04-10T11:43:07.164Z,25.2635
2023-04-10T11:44:08.853Z,25.2769
2023-04-10T11:45:10.491Z,25.0935
2023-04-10T11:46:12.174Z,24.9962
2023-04-10T11:47:13.846Z,25.0304
2023-04-10T11:48:15.435Z,25.1500
2023-04-10T11:49:17.166Z,25.2569
2023-04-10T11:50:18.829Z,25.2719
2023-04-10T11:51:20.347Z,25.1423
2023-04-10T11:52:22.067Z,25.0219
2023-04-10T11:53:23.703Z,25.0565
2023-04-10T11:54:25.337Z,25.1381
2023-04-10T11:55:26.953Z,25.2669
2023-04-10T11:56:28.655Z,25.3035
2023-04-10T11:57:30.410Z,25.2354
2023-04-10T11:58:32.702Z,25.0746
2023-04-10T11:59:33.661Z,25.1100
2023-04-10T12:00:35.296Z,25.2100
2023-04-10T12:01:37.045Z,25.3096
2023-04-10T12:02:38.717Z,25.4012
2023-04-10T12:03:40.316Z,25.3215
2023-04-10T12:04:42.166Z,25.2154
2023-04-10T12:05:43.492Z,25.2077
2023-04-10T12:06:45.214Z,25.3496
2023-04-10T12:07:46.944Z,25.4704
2023-04-10T12:08:48.513Z,25.5385
2023-04-10T12:09:50.154Z,25.4681
2023-04-10T12:10:51.775Z,25.3162
2023-04-10T12:11:53.419Z,25.2973
2023-04-10T12:12:55.124Z,25.3500
2023-04-10T12:13:56.744Z,25.4746
2023-04-10T12:14:58.405Z,25.6027
2023-04-10T12:16:00.098Z,25.5354
2023-04-10T12:17:01.775Z,25.4169
2023-04-10T12:18:04.102Z,25.3981
2023-04-10T12:19:04.987Z,25.4835
2023-04-10T12:20:06.651Z,25.6396
2023-04-10T12:21:08.705Z,25.7312
2023-04-10T12:22:09.969Z,25.6292
2023-04-10T12:23:11.677Z,25.4877
2023-04-10T12:24:13.235Z,25.4862
2023-04-10T12:25:15.028Z,25.5750